createdAt,value
2023-04-06T00:00:50.641Z,5.87
2023-04-06T00:03:17.373Z,6.17
2023-04-06T00:05:44.160Z,6.10
2023-04-06T00:08:11.689Z,4.73
2023-04-06T00:10:38.323Z,8.33
2023-04-06T00:13:04.901Z,5.40
2023-04-06T00:15:31.639Z,6.97
2023-04-06T00:17:58.329Z,5.47
2023-04-06T00:20:25.065Z,5.33
2023-04-06T00:22:51.969Z,4.70
2023-04-06T00:25:18.754Z,6.33
2023-04-06T00:27:45.420Z,4.90
2023-04-06T00:30:12.361Z,5.27
2023-04-06T00:32:39.113Z,5.87
2023-04-06T00:35:06.929Z,5.93
2023-04-06T00:37:33.873Z,5.57
2023-04-06T00:40:01.596Z,5.37
2023-04-06T00:42:28.201Z,4.77
2023-04-06T00:45:00.026Z,5.13
2023-04-06T00:47:27.428Z,5.33
2023-04-06T00:49:55.428Z,5.37
2023-04-06T00:52:22.547Z,7.97
2023-04-06T00:54:51.712Z,5.37
2023-04-06T00:57:20.356Z,5.23
2023-04-06T00:59:53.095Z,5.90
2023-04-06T01:02:20.058Z,6.93
2023-04-06T01:04:57.513Z,5.67
2023-04-06T01:07:44.524Z,4.87
2023-04-06T01:10:29.124Z,7.13
2023-04-06T01:13:09.724Z,6.47
2023-04-06T01:16:03.751Z,4.83
2023-04-06T01:18:53.356Z,4.97
2023-04-06T01:21:24.673Z,7.43
2023-04-06T01:24:11.653Z,5.73
2023-04-06T01:26:55.235Z,5.47
2023-04-06T01:29:21.915Z,4.53
2023-04-06T01:31:48.872Z,5.37
2023-04-06T01:34:16.350Z,5.77
2023-04-06T01:36:43.332Z,6.97
2023-04-06T01:39:21.982Z,6.50
2023-04-06T01:41:48.706Z,6.47
2023-04-06T01:44:20.469Z,5.83
2023-04-06T01:46:53.124Z,7.00
2023-04-06T01:49:19.980Z,5.63
2023-04-06T01:51:51.547Z,7.60
2023-04-06T01:54:18.205Z,5.50
2023-04-06T01:57:11.802Z,6.53
2023-04-06T01:59:46.285Z,6.60
2023-04-06T02:02:32.103Z,5.33
2023-04-06T02:05:02.630Z,6.17
2023-04-06T02:07:29.615Z,5.93
2023-04-06T02:09:57.114Z,7.17
2023-04-06T02:12:35.246Z,6.47
2023-04-06T02:15:03.044Z,5.73
2023-04-06T02:17:29.740Z,5.87
2023-04-06T02:19:56.428Z,7.70
2023-04-06T02:22:23.102Z,6.57
2023-04-06T02:24:49.714Z,6.50
2023-04-06T02:27:16.458Z,5.27
2023-04-06T02:29:47.099Z,8.40
2023-04-06T02:32:15.880Z,5.77
2023-04-06T02:34:42.475Z,7.60
2023-04-06T02:37:09.223Z,7.13
2023-04-06T02:39:36.749Z,6.87
2023-04-06T02:42:05.773Z,6.57
2023-04-06T02:44:32.391Z,6.60
2023-04-06T02:46:58.985Z,7.20
2023-04-06T02:49:26.527Z,7.93
2023-04-06T02:51:56.447Z,8.67
2023-04-06T02:54:27.292Z,6.80
2023-04-06T02:56:54.010Z,6.77
2023-04-06T02:59:21.722Z,7.77
2023-04-06T03:02:01.419Z,7.07
2023-04-06T03:04:28.197Z,6.70
2023-04-06T03:06:57.102Z,7.10
2023-04-06T03:09:34.345Z,7.87
2023-04-06T03:12:01.486Z,7.80
2023-04-06T03:14:29.108Z,7.03
2023-04-06T03:16:56.569Z,7.00
2023-04-06T03:19:24.856Z,8.03
2023-04-06T03:21:51.616Z,8.67
2023-04-06T03:24:20.629Z,6.90
2023-04-06T03:26:48.124Z,8.37
2023-04-06T03:29:14.774Z,7.50
2023-04-06T03:31:41.617Z,7.90
2023-04-06T03:34:22.097Z,9.60
2023-04-06T03:36:53.991Z,7.07
2023-04-06T03:39:31.078Z,8.77
2023-04-06T03:41:58.738Z,7.17
2023-04-06T03:44:36.969Z,7.30
2023-04-06T03:47:04.481Z,11.57
2023-04-06T03:49:31.428Z,10.17
2023-04-06T03:51:58.972Z,9.20
2023-04-06T03:54:25.672Z,9.07
2023-04-06T03:56:52.251Z,11.50
2023-04-06T03:59:18.915Z,10.70
2023-04-06T04:01:45.951Z,8.43
2023-04-06T04:04:12.587Z,9.70
2023-04-06T04:06:39.189Z,9.07
2023-04-06T04:09:08.076Z,9.80
2023-04-06T04:11:35.500Z,7.50
2023-04-06T04:14:02.388Z,8.03
2023-04-06T04:16:29.383Z,8.00
2023-04-06T04:18:59.030Z,9.70
2023-04-06T04:21:26.769Z,8.07
2023-04-06T04:23:53.769Z,8.53
2023-04-06T04:26:20.914Z,9.10
2023-04-06T04:28:47.596Z,9.80
2023-04-06T04:31:15.600Z,7.30
2023-04-06T04:33:42.412Z,7.73
2023-04-06T04:36:14.508Z,9.67
2023-04-06T04:38:43.536Z,9.27
2023-04-06T04:41:11.331Z,8.73
2023-04-06T04:43:40.434Z,8.20
2023-04-06T04:46:07.902Z,7.70
2023-04-06T04:48:39.836Z,10.93
2023-04-06T04:51:07.500Z,8.10
2023-04-06T04:54:03.849Z,10.70
2023-04-06T04:56:32.440Z,11.17
2023-04-06T04:59:19.509Z,7.80
2023-04-06T05:01:55.677Z,9.10
2023-04-06T05:04:29.048Z,8.77
2023-04-06T05:07:07.420Z,11.07
2023-04-06T05:09:36.187Z,10.37
2023-04-06T05:12:03.344Z,8.90
2023-04-06T05:14:34.962Z,10.07
2023-04-06T05:17:04.195Z,9.30
2023-04-06T05:19:31.405Z,9.10
2023-04-06T05:21:58.079Z,9.73
2023-04-06T05:24:25.131Z,8.53
2023-04-06T05:26:51.918Z,9.27
2023-04-06T05:29:23.115Z,9.37
2023-04-06T05:31:49.771Z,8.77
2023-04-06T05:34:16.823Z,8.03
2023-04-06T05:36:43.508Z,8.67
2023-04-06T05:39:17.968Z,12.63
2023-04-06T05:41:49.790Z,8.20
2023-04-06T05:44:22.494Z,8.80
2023-04-06T05:46:59.266Z,10.23
2023-04-06T05:49:25.999Z,10.37
2023-04-06T05:51:53.194Z,8.33
2023-04-06T05:54:20.984Z,10.87
2023-04-06T05:56:47.861Z,10.93
2023-04-06T05:59:16.423Z,9.30
2023-04-06T06:01:44.875Z,9.47
2023-04-06T06:04:14.776Z,10.50
2023-04-06T06:06:41.426Z,10.87
2023-04-06T06:09:13.536Z,10.53
2023-04-06T06:11:47.222Z,12.17
2023-04-06T06:14:16.650Z,9.57
2023-04-06T06:16:43.976Z,10.13
2023-04-06T06:19:13.058Z,10.40
2023-04-06T06:21:40.033Z,9.23
2023-04-06T06:24:08.344Z,10.73
2023-04-06T06:26:38.029Z,10.17
2023-04-06T06:29:06.548Z,10.43
2023-04-06T06:31:36.361Z,9.90
2023-04-06T06:34:03.546Z,9.83
2023-04-06T06:36:32.756Z,11.07
2023-04-06T06:38:59.511Z,10.50
2023-04-06T06:41:27.141Z,11.23
2023-04-06T06:43:54.866Z,10.47
2023-04-06T06:46:22.328Z,12.60
2023-04-06T06:48:49.060Z,11.23
2023-04-06T06:51:15.848Z,11.30
2023-04-06T06:53:42.528Z,10.83
2023-04-06T06:56:09.166Z,9.97
2023-04-06T06:58:36.036Z,10.97
2023-04-06T07:01:02.729Z,11.90
2023-04-06T07:03:31.850Z,11.47
2023-04-06T07:05:58.444Z,11.23
2023-04-06T07:08:25.883Z,9.77
2023-04-06T07:10:53.921Z,12.00
2023-04-06T07:13:24.341Z,9.50
2023-04-06T07:15:53.434Z,11.10
2023-04-06T07:18:20.829Z,14.27
2023-04-06T07:20:47.899Z,10.20
2023-04-06T07:23:16.039Z,11.33
2023-04-06T07:25:43.100Z,9.10
2023-04-06T07:28:10.506Z,9.30
2023-04-06T07:30:38.640Z,11.97
2023-04-06T07:33:06.687Z,14.27
2023-04-06T07:35:36.013Z,10.73
2023-04-06T07:38:03.523Z,10.13
2023-04-06T07:40:32.862Z,10.63
2023-04-06T07:42:59.661Z,11.33
2023-04-06T07:45:26.569Z,10.70
2023-04-06T07:47:53.939Z,10.33
2023-04-06T07:50:21.555Z,10.10
2023-04-06T07:52:48.281Z,10.50
2023-04-06T07:55:15.461Z,10.60
2023-04-06T07:57:42.022Z,10.07
2023-04-06T08:00:10.705Z,9.90
2023-04-06T08:02:40.570Z,10.67
2023-04-06T08:05:08.253Z,10.33
2023-04-06T08:07:35.268Z,10.93
2023-04-06T08:10:02.024Z,10.40
2023-04-06T08:12:28.598Z,9.37
2023-04-06T08:14:55.415Z,12.40
2023-04-06T08:17:22.092Z,12.10
2023-04-06T08:19:48.723Z,12.60
2023-04-06T08:22:15.445Z,13.27
2023-04-06T08:24:42.155Z,14.90
2023-04-06T08:27:08.826Z,12.40
2023-04-06T08:29:35.460Z,12.73
2023-04-06T08:32:05.953Z,12.20
2023-04-06T08:34:33.967Z,11.50
2023-04-06T08:37:01.070Z,12.95
2023-04-06T08:39:28.764Z,13.40
2023-04-06T08:41:58.115Z,12.70
2023-04-06T08:44:25.391Z,11.45
2023-04-06T08:46:53.889Z,12.23
2023-04-06T08:49:21.212Z,12.05
2023-04-06T08:51:48.243Z,11.23
2023-04-06T08:54:14.958Z,13.15
2023-04-06T08:56:42.324Z,11.90
2023-04-06T08:59:10.336Z,12.50
2023-04-06T09:01:44.866Z,11.98
2023-04-06T09:04:13.079Z,18.98
2023-04-06T09:06:41.601Z,12.82
2023-04-06T09:09:08.832Z,9.73
2023-04-06T09:11:49.643Z,9.52
2023-04-06T09:14:17.749Z,12.20
2023-04-06T09:16:46.398Z,11.55
2023-04-06T09:19:13.563Z,11.65
2023-04-06T09:21:41.135Z,12.05
2023-04-06T09:24:09.374Z,10.93
2023-04-06T09:26:48.059Z,10.38
2023-04-06T09:29:27.688Z,11.40
2023-04-06T09:32:06.607Z,11.80
2023-04-06T09:34:34.254Z,11.18
2023-04-06T09:37:01.176Z,11.43
2023-04-06T09:39:27.871Z,11.80
2023-04-06T09:41:55.496Z,10.75
2023-04-06T09:44:22.603Z,8.90
2023-04-06T09:46:58.662Z,9.50
2023-04-06T09:49:32.083Z,9.48
2023-04-06T09:52:01.619Z,9.65
2023-04-06T09:54:31.525Z,11.38
2023-04-06T09:57:25.995Z,10.55
2023-04-06T10:00:14.360Z,10.20
2023-04-06T10:03:31.350Z,10.43
2023-04-06T10:06:02.206Z,9.73
2023-04-06T10:08:32.556Z,8.98
2023-04-06T10:11:00.315Z,9.48
2023-04-06T10:13:27.007Z,9.73
2023-04-06T10:15:55.353Z,8.98
2023-04-06T10:18:22.603Z,10.88
2023-04-06T10:21:08.193Z,8.75
2023-04-06T10:23:47.894Z,12.30
2023-04-06T10:26:22.097Z,10.40
2023-04-06T10:28:50.053Z,10.10
2023-04-06T10:31:25.581Z,9.38
2023-04-06T10:33:58.754Z,9.32
2023-04-06T10:36:30.455Z,9.10
2023-04-06T10:38:59.791Z,11.43
2023-04-06T10:41:47.971Z,9.77
2023-04-06T10:44:26.657Z,10.38
2023-04-06T10:46:58.066Z,10.65
2023-04-06T10:49:27.435Z,8.02
2023-04-06T10:51:55.357Z,12.10
2023-04-06T10:54:24.707Z,9.48
2023-04-06T10:56:51.382Z,9.77
2023-04-06T10:59:22.930Z,10.05
2023-04-06T11:01:50.110Z,8.48
2023-04-06T11:04:19.403Z,8.50
2023-04-06T11:06:50.878Z,9.02
2023-04-06T11:09:32.414Z,8.35
2023-04-06T11:11:59.421Z,10.85
2023-04-06T11:14:27.649Z,9.15
2023-04-06T11:16:54.806Z,10.63
2023-04-06T11:19:21.570Z,13.55
2023-04-06T11:21:49.853Z,8.93
2023-04-06T11:24:18.351Z,9.63
2023-04-06T11:26:46.963Z,9.27
2023-04-06T11:29:14.311Z,10.95
2023-04-06T11:31:46.977Z,9.48
2023-04-06T11:34:17.174Z,10.77
2023-04-06T11:36:46.060Z,11.60
2023-04-06T11:39:14.364Z,9.55
2023-04-06T11:41:41.961Z,12.13
2023-04-06T11:44:08.602Z,10.20
2023-04-06T11:46:35.538Z,8.85
2023-04-06T11:49:03.417Z,11.05
2023-04-06T11:51:30.183Z,10.10
2023-04-06T11:53:57.258Z,10.18
2023-04-06T11:56:28.830Z,10.93
2023-04-06T11:58:57.419Z,8.65
2023-04-06T12:01:25.549Z,11.05
2023-04-06T12:03:52.894Z,9.15
2023-04-06T12:06:19.865Z,9.65
2023-04-06T12:08:46.568Z,9.10
2023-04-06T12:11:13.197Z,10.45
2023-04-06T12:13:40.049Z,9.77
2023-04-06T12:16:06.842Z,8.52
2023-04-06T12:18:33.463Z,9.45
2023-04-06T12:21:00.373Z,9.68
2023-04-06T12:23:27.086Z,8.55
2023-04-06T12:25:54.032Z,11.68
2023-04-06T12:28:24.148Z,10.45
2023-04-06T12:30:52.004Z,8.57
2023-04-06T12:33:18.709Z,9.85
2023-04-06T12:35:45.447Z,9.27
2023-04-06T12:38:12.378Z,9.48
2023-04-06T12:40:39.667Z,10.60
2023-04-06T12:43:06.320Z,10.95
2023-04-06T12:45:33.083Z,8.85
2023-04-06T12:48:00.000Z,10.50
2023-04-06T12:50:27.477Z,8.90
2023-04-06T12:52:54.319Z,10.13
2023-04-06T12:55:21.763Z,9.98
2023-04-06T12:57:48.434Z,10.75
2023-04-06T13:00:16.008Z,10.07
2023-04-06T13:03:07.816Z,10.40
2023-04-06T13:05:34.415Z,10.27
2023-04-06T13:08:01.029Z,10.63
2023-04-06T13:10:27.744Z,11.30
2023-04-06T13:12:54.341Z,8.75
2023-04-06T13:15:21.153Z,9.20
2023-04-06T13:17:47.823Z,11.50
2023-04-06T13:20:14.483Z,11.30
2023-04-06T13:22:41.214Z,10.70
2023-04-06T13:25:08.234Z,10.55
2023-04-06T13:27:36.791Z,10.25
2023-04-06T13:30:06.149Z,9.13
2023-04-06T13:32:33.853Z,11.25
2023-04-06T13:35:01.442Z,11.75
2023-04-06T13:37:28.039Z,9.77
2023-04-06T13:39:54.618Z,9.10
2023-04-06T13:42:21.337Z,9.63
2023-04-06T13:44:47.978Z,10.70
2023-04-06T13:47:14.648Z,7.80
2023-04-06T13:49:41.692Z,8.77
2023-04-06T13:52:08.285Z,8.32
2023-04-06T13:54:34.874Z,8.60
2023-04-06T13:57:01.846Z,8.18
2023-04-06T13:59:38.493Z,7.75
2023-04-06T14:02:07.338Z,8.20
2023-04-06T14:04:34.706Z,7.35
2023-04-06T14:07:02.392Z,6.68
2023-04-06T14:09:29.983Z,9.27
2023-04-06T14:11:57.230Z,6.90
2023-04-06T14:14:24.302Z,6.32
2023-04-06T14:16:51.014Z,6.13
2023-04-06T14:19:18.941Z,9.00
2023-04-06T14:21:46.480Z,7.57
2023-04-06T14:24:14.679Z,9.68
2023-04-06T14:26:42.690Z,8.25
2023-04-06T14:29:10.667Z,8.40
2023-04-06T14:31:38.011Z,7.38
2023-04-06T14:34:04.916Z,10.40
2023-04-06T14:36:38.371Z,8.50
2023-04-06T14:39:06.947Z,9.75
2023-04-06T14:41:34.601Z,9.20
2023-04-06T14:44:01.769Z,8.27
2023-04-06T14:46:28.600Z,9.40
2023-04-06T14:48:57.332Z,7.88
2023-04-06T14:51:26.626Z,9.80
2023-04-06T14:53:53.311Z,10.60
2023-04-06T14:56:22.285Z,9.75
2023-04-06T14:58:49.659Z,8.25
2023-04-06T15:01:16.352Z,9.35
2023-04-06T15:03:43.377Z,8.30
2023-04-06T15:06:16.446Z,8.55
2023-04-06T15:08:44.028Z,8.68
2023-04-06T15:11:11.703Z,9.07
2023-04-06T15:13:39.434Z,7.07
2023-04-06T15:16:07.074Z,8.82
2023-04-06T15:18:35.569Z,8.00
2023-04-06T15:21:02.678Z,8.02
2023-04-06T15:23:33.782Z,8.00
2023-04-06T15:26:00.781Z,9.43
2023-04-06T15:28:27.868Z,8.15
2023-04-06T15:30:56.555Z,8.38
2023-04-06T15:33:23.177Z,7.88
2023-04-06T15:35:49.879Z,9.63
2023-04-06T15:38:16.633Z,10.32
2023-04-06T15:40:45.652Z,8.13
2023-04-06T15:43:13.085Z,10.55
2023-04-06T15:45:39.995Z,11.10
2023-04-06T15:48:07.479Z,8.63
2023-04-06T15:50:34.902Z,10.88
2023-04-06T15:53:01.847Z,7.95
2023-04-06T15:55:28.469Z,9.52
2023-04-06T15:57:55.369Z,9.95
2023-04-06T16:00:22.675Z,8.20
2023-04-06T16:02:49.535Z,9.15
2023-04-06T16:05:16.307Z,10.00
2023-04-06T16:07:43.158Z,8.18
2023-04-06T16:10:10.417Z,9.45
2023-04-06T16:12:37.115Z,10.75
2023-04-06T16:15:03.989Z,8.60
2023-04-06T16:17:30.627Z,9.43
2023-04-06T16:19:57.234Z,9.10
2023-04-06T16:22:23.868Z,8.97
2023-04-06T16:24:50.488Z,10.07
2023-04-06T16:27:17.664Z,9.77
2023-04-06T16:29:44.281Z,9.97
2023-04-06T16:32:12.291Z,11.07
2023-04-06T16:34:39.040Z,11.50
2023-04-06T16:37:05.784Z,10.53
2023-04-06T16:39:32.482Z,11.67
2023-04-06T16:41:59.462Z,10.13
2023-04-06T16:44:28.066Z,12.10
2023-04-06T16:46:54.688Z,12.57
2023-04-06T16:49:21.359Z,12.97
2023-04-06T16:51:49.716Z,11.43
2023-04-06T16:54:16.716Z,11.80
2023-04-06T16:56:43.400Z,14.20
2023-04-06T16:59:10.397Z,14.43
2023-04-06T17:01:37.173Z,13.87
2023-04-06T17:04:04.124Z,13.37
2023-04-06T17:06:31.300Z,11.40
2023-04-06T17:08:59.845Z,13.47
2023-04-06T17:11:32.859Z,12.63
2023-04-06T17:14:08.183Z,13.97
2023-04-06T17:16:35.312Z,13.03
2023-04-06T17:19:02.442Z,15.10
2023-04-06T17:21:29.086Z,12.90
2023-04-06T17:23:55.862Z,12.50
2023-04-06T17:26:22.710Z,12.80
2023-04-06T17:28:49.528Z,13.43
2023-04-06T17:31:16.258Z,14.27
2023-04-06T17:33:42.944Z,15.37
2023-04-06T17:36:10.931Z,14.23
2023-04-06T17:38:43.260Z,11.90
2023-04-06T17:41:11.918Z,13.33
2023-04-06T17:43:38.603Z,14.73
2023-04-06T17:46:05.584Z,13.23
2023-04-06T17:48:32.305Z,14.80
2023-04-06T17:50:58.940Z,13.27
2023-04-06T17:53:25.737Z,11.93
2023-04-06T17:55:52.289Z,14.90
2023-04-06T17:58:18.901Z,13.27
2023-04-06T18:00:45.663Z,13.03
2023-04-06T18:03:12.306Z,14.17
2023-04-06T18:05:39.679Z,15.97
2023-04-06T18:08:06.406Z,15.07
2023-04-06T18:10:39.060Z,17.67
2023-04-06T18:13:05.846Z,15.20
2023-04-06T18:15:35.008Z,17.90
2023-04-06T18:18:01.753Z,18.40
2023-04-06T18:20:28.442Z,15.00
2023-04-06T18:22:55.812Z,21.70
2023-04-06T18:25:23.638Z,15.67
2023-04-06T18:27:50.749Z,14.53
2023-04-06T18:30:18.119Z,16.30
2023-04-06T18:32:44.744Z,14.97
2023-04-06T18:35:11.650Z,17.53
2023-04-06T18:37:38.305Z,18.03
2023-04-06T18:40:05.737Z,17.53
2023-04-06T18:42:32.345Z,24.13
2023-04-06T18:44:58.965Z,15.70
2023-04-06T18:47:25.893Z,16.70
2023-04-06T18:49:52.744Z,16.90
2023-04-06T18:52:19.878Z,22.47
2023-04-06T18:54:46.472Z,15.90
2023-04-06T18:57:13.861Z,16.23
2023-04-06T18:59:40.947Z,15.73
2023-04-06T19:02:08.106Z,14.50
2023-04-06T19:04:35.251Z,15.23
2023-04-06T19:07:02.283Z,14.20
2023-04-06T19:09:29.208Z,14.00
2023-04-06T19:11:57.513Z,14.83
2023-04-06T19:14:24.379Z,13.07
2023-04-06T19:16:52.527Z,13.47
2023-04-06T19:19:20.544Z,13.77
2023-04-06T19:21:48.206Z,13.60
2023-04-06T19:24:15.386Z,15.13
2023-04-06T19:26:46.075Z,14.83
2023-04-06T19:29:12.860Z,13.90
2023-04-06T19:31:39.558Z,14.17
2023-04-06T19:34:07.230Z,15.13
2023-04-06T19:36:34.360Z,14.13
2023-04-06T19:39:01.193Z,14.27
2023-04-06T19:41:28.061Z,13.97
2023-04-06T19:43:56.786Z,13.33
2023-04-06T19:46:23.783Z,11.57
2023-04-06T19:48:51.093Z,12.37
2023-04-06T19:51:17.885Z,11.77
2023-04-06T19:53:45.222Z,11.47
2023-04-06T19:56:12.871Z,12.37
2023-04-06T19:58:41.138Z,12.67
2023-04-06T20:01:08.707Z,11.50
2023-04-06T20:03:36.975Z,13.40
2023-04-06T20:06:05.470Z,13.17
2023-04-06T20:08:32.391Z,13.70
2023-04-06T20:11:06.398Z,12.13
2023-04-06T20:13:37.762Z,13.63
2023-04-06T20:16:05.724Z,12.67
2023-04-06T20:18:34.951Z,10.97
2023-04-06T20:21:02.908Z,13.27
2023-04-06T20:23:31.825Z,11.97
2023-04-06T20:25:59.640Z,12.30
2023-04-06T20:28:29.115Z,11.97
2023-04-06T20:30:57.650Z,11.90
2023-04-06T20:33:24.632Z,13.83
2023-04-06T20:35:58.711Z,11.10
2023-04-06T20:38:33.031Z,11.00
2023-04-06T20:41:02.224Z,11.87
2023-04-06T20:43:29.594Z,13.30
2023-04-06T20:45:57.762Z,10.37
2023-04-06T20:48:25.426Z,10.40
2023-04-06T20:50:53.019Z,11.70
2023-04-06T20:53:20.787Z,11.37
2023-04-06T20:55:47.796Z,11.57
2023-04-06T20:58:20.674Z,11.87
2023-04-06T21:00:50.702Z,10.13
2023-04-06T21:03:21.925Z,12.30
2023-04-06T21:05:58.748Z,11.70
2023-04-06T21:08:25.391Z,13.43
2023-04-06T21:10:52.040Z,10.90
2023-04-06T21:13:18.651Z,10.97
2023-04-06T21:15:45.425Z,11.83
2023-04-06T21:18:12.361Z,12.00
2023-04-06T21:20:39.981Z,12.97
2023-04-06T21:23:06.615Z,12.47
2023-04-06T21:25:33.212Z,13.07
2023-04-06T21:27:59.791Z,14.60
2023-04-06T21:30:27.255Z,12.80
2023-04-06T21:32:54.314Z,16.33
2023-04-06T21:35:21.027Z,13.40
2023-04-06T21:37:48.025Z,14.60
2023-04-06T21:40:15.462Z,13.47
2023-04-06T21:42:42.237Z,14.47
2023-04-06T21:45:09.795Z,13.27
2023-04-06T21:47:36.575Z,14.00
2023-04-06T21:50:03.569Z,15.27
2023-04-06T21:52:30.344Z,14.80
2023-04-06T21:54:57.103Z,15.30
2023-04-06T21:57:23.871Z,13.00
2023-04-06T21:59:50.669Z,16.37
2023-04-06T22:02:17.682Z,18.20
2023-04-06T22:04:44.442Z,16.57
2023-04-06T22:07:11.374Z,17.17
2023-04-06T22:09:37.986Z,15.90
2023-04-06T22:12:04.629Z,16.80
2023-04-06T22:14:31.553Z,16.13
2023-04-06T22:16:58.209Z,17.03
2023-04-06T22:19:24.802Z,17.37
2023-04-06T22:21:51.563Z,19.10
2023-04-06T22:24:18.571Z,16.67
2023-04-06T22:26:45.570Z,15.93
2023-04-06T22:29:12.173Z,16.37
2023-04-06T22:31:38.829Z,16.50
2023-04-06T22:34:05.532Z,17.00
2023-04-06T22:36:32.310Z,15.73
2023-04-06T22:38:58.927Z,15.73
2023-04-06T22:41:26.717Z,16.50
2023-04-06T22:43:53.454Z,18.77
2023-04-06T22:46:20.121Z,16.30
2023-04-06T22:48:46.708Z,16.07
2023-04-06T22:51:13.316Z,15.93
2023-04-06T22:53:40.179Z,15.17
2023-04-06T22:56:06.830Z,16.83
2023-04-06T22:58:33.406Z,17.00
2023-04-06T23:01:00.028Z,16.27
2023-04-06T23:03:27.301Z,16.57
2023-04-06T23:05:53.932Z,16.73
2023-04-06T23:08:20.518Z,17.63
2023-04-06T23:10:47.135Z,19.07
2023-04-06T23:13:13.742Z,16.50
2023-04-06T23:15:40.360Z,16.90
2023-04-06T23:18:07.392Z,18.00
2023-04-06T23:20:34.088Z,19.47
2023-04-06T23:23:00.682Z,17.13
2023-04-06T23:25:27.275Z,19.13
2023-04-06T23:27:53.918Z,17.70
2023-04-06T23:30:20.575Z,22.13
2023-04-06T23:32:47.226Z,19.90
2023-04-06T23:35:13.890Z,19.73
2023-04-06T23:37:40.520Z,20.23
2023-04-06T23:40:08.825Z,21.53
2023-04-06T23:42:35.544Z,21.23
2023-04-06T23:45:06.178Z,20.50
2023-04-06T23:47:32.793Z,21.67
2023-04-06T23:49:59.921Z,19.60
2023-04-06T23:52:27.055Z,20.57
2023-04-06T23:54:53.847Z,19.93
2023-04-06T23:57:20.454Z,20.50
2023-04-06T23:59:47.046Z,20.40
